sensor_id;sensor_type;location;lat;lon;timestamp;P1;durP1;ratioP1;P2;durP2;ratioP2
19905;SDS011;10115;50.906;4.438;2022-07-24T00:02:08;33.90;;;15.27;;
19905;SDS011;10115;50.906;4.438;2022-07-24T00:04:34;23.30;;;13.43;;
19905;SDS011;10115;50.906;4.438;2022-07-24T00:06:59;22.13;;;12.37;;
19905;SDS011;10115;50.906;4.438;2022-07-24T00:09:25;26.07;;;14.63;;
19905;SDS011;10115;50.906;4.438;2022-07-24T00:11:50;22.53;;;12.83;;
19905;SDS011;10115;50.906;4.438;2022-07-24T00:14:16;18.83;;;12.93;;
19905;SDS011;10115;50.906;4.438;2022-07-24T00:16:42;30.53;;;14.07;;
19905;SDS011;10115;50.906;4.438;2022-07-24T00:19:08;23.27;;;14.17;;
19905;SDS011;10115;50.906;4.438;2022-07-24T00:21:33;20.83;;;12.43;;
19905;SDS011;10115;50.906;4.438;2022-07-24T00:23:59;21.00;;;13.80;;
19905;SDS011;10115;50.906;4.438;2022-07-24T00:26:25;21.77;;;14.13;;
19905;SDS011;10115;50.906;4.438;2022-07-24T00:28:51;24.23;;;13.90;;
19905;SDS011;10115;50.906;4.438;2022-07-24T00:31:16;24.73;;;13.30;;
19905;SDS011;10115;50.906;4.438;2022-07-24T00:33:44;23.63;;;13.73;;
19905;SDS011;10115;50.906;4.438;2022-07-24T00:36:10;19.70;;;13.67;;
19905;SDS011;10115;50.906;4.438;2022-07-24T00:38:36;21.03;;;14.40;;
19905;SDS011;10115;50.906;4.438;2022-07-24T00:41:02;20.43;;;12.77;;
19905;SDS011;10115;50.906;4.438;2022-07-24T00:43:27;26.23;;;14.57;;
19905;SDS011;10115;50.906;4.438;2022-07-24T00:45:53;28.63;;;13.20;;
19905;SDS011;10115;50.906;4.438;2022-07-24T00:48:19;20.80;;;13.23;;
19905;SDS011;10115;50.906;4.438;2022-07-24T00:50:45;20.67;;;13.30;;
19905;SDS011;10115;50.906;4.438;2022-07-24T00:53:11;24.73;;;15.03;;
19905;SDS011;10115;50.906;4.438;2022-07-24T00:55:37;24.60;;;13.87;;
19905;SDS011;10115;50.906;4.438;2022-07-24T00:58:03;19.83;;;13.47;;
19905;SDS011;10115;50.906;4.438;2022-07-24T01:00:29;19.33;;;12.87;;
19905;SDS011;10115;50.906;4.438;2022-07-24T01:02:55;27.57;;;14.07;;
19905;SDS011;10115;50.906;4.438;2022-07-24T01:05:21;28.40;;;15.33;;
19905;SDS011;10115;50.906;4.438;2022-07-24T01:07:46;23.97;;;14.73;;
19905;SDS011;10115;50.906;4.438;2022-07-24T01:10:13;30.37;;;17.27;;
19905;SDS011;10115;50.906;4.438;2022-07-24T01:12:39;26.47;;;16.13;;
19905;SDS011;10115;50.906;4.438;2022-07-24T01:15:05;26.53;;;17.23;;
19905;SDS011;10115;50.906;4.438;2022-07-24T01:17:33;27.87;;;16.83;;
19905;SDS011;10115;50.906;4.438;2022-07-24T01:20:01;30.37;;;17.17;;
19905;SDS011;10115;50.906;4.438;2022-07-24T01:22:28;26.97;;;17.40;;
19905;SDS011;10115;50.906;4.438;2022-07-24T01:24:54;27.57;;;16.23;;
19905;SDS011;10115;50.906;4.438;2022-07-24T01:27:23;25.87;;;16.13;;
19905;SDS011;10115;50.906;4.438;2022-07-24T01:29:50;32.60;;;18.40;;
19905;SDS011;10115;50.906;4.438;2022-07-24T01:32:17;25.50;;;16.80;;
19905;SDS011;10115;50.906;4.438;2022-07-24T01:34:43;24.47;;;16.90;;
19905;SDS011;10115;50.906;4.438;2022-07-24T01:37:09;25.77;;;16.80;;
19905;SDS011;10115;50.906;4.438;2022-07-24T01:39:35;26.20;;;15.80;;
19905;SDS011;10115;50.906;4.438;2022-07-24T01:42:01;27.80;;;15.93;;
19905;SDS011;10115;50.906;4.438;2022-07-24T01:44:27;29.33;;;17.57;;
19905;SDS011;10115;50.906;4.438;2022-07-24T01:46:52;26.73;;;16.67;;
19905;SDS011;10115;50.906;4.438;2022-07-24T01:49:18;32.80;;;17.13;;
19905;SDS011;10115;50.906;4.438;2022-07-24T01:51:44;32.37;;;17.43;;
19905;SDS011;10115;50.906;4.438;2022-07-24T01:54:09;26.53;;;14.53;;
19905;SDS011;10115;50.906;4.438;2022-07-24T01:56:35;29.83;;;16.93;;
19905;SDS011;10115;50.906;4.438;2022-07-24T01:59:01;39.43;;;16.47;;
19905;SDS011;10115;50.906;4.438;2022-07-24T02:01:27;31.07;;;15.43;;
19905;SDS011;10115;50.906;4.438;2022-07-24T02:03:54;26.17;;;15.03;;
19905;SDS011;10115;50.906;4.438;2022-07-24T02:06:19;20.83;;;13.60;;
19905;SDS011;10115;50.906;4.438;2022-07-24T02:08:45;23.73;;;15.27;;
19905;SDS011;10115;50.906;4.438;2022-07-24T02:11:11;24.37;;;13.77;;
19905;SDS011;10115;50.906;4.438;2022-07-24T02:13:37;23.37;;;14.07;;
19905;SDS011;10115;50.906;4.438;2022-07-24T02:16:02;24.47;;;14.13;;
19905;SDS011;10115;50.906;4.438;2022-07-24T02:18:28;25.03;;;13.73;;
19905;SDS011;10115;50.906;4.438;2022-07-24T02:20:54;20.23;;;13.17;;
19905;SDS011;10115;50.906;4.438;2022-07-24T02:23:20;23.43;;;14.00;;
19905;SDS011;10115;50.906;4.438;2022-07-24T02:25:46;17.70;;;11.83;;
19905;SDS011;10115;50.906;4.438;2022-07-24T02:28:13;20.67;;;10.13;;
19905;SDS011;10115;50.906;4.438;2022-07-24T02:30:40;19.73;;;10.90;;
19905;SDS011;10115;50.906;4.438;2022-07-24T02:33:06;17.17;;;11.27;;
19905;SDS011;10115;50.906;4.438;2022-07-24T02:35:32;19.13;;;9.27;;
19905;SDS011;10115;50.906;4.438;2022-07-24T02:37:58;16.33;;;9.43;;
19905;SDS011;10115;50.906;4.438;2022-07-24T02:40:23;17.77;;;10.00;;
19905;SDS011;10115;50.906;4.438;2022-07-24T02:42:49;13.33;;;8.30;;
19905;SDS011;10115;50.906;4.438;2022-07-24T02:45:15;18.77;;;10.07;;
19905;SDS011;10115;50.906;4.438;2022-07-24T02:47:49;17.20;;;9.67;;
19905;SDS011;10115;50.906;4.438;2022-07-24T02:50:20;11.97;;;8.27;;
19905;SDS011;10115;50.906;4.438;2022-07-24T02:52:47;15.50;;;9.57;;
19905;SDS011;10115;50.906;4.438;2022-07-24T02:55:13;16.03;;;9.00;;
19905;SDS011;10115;50.906;4.438;2022-07-24T02:57:39;20.97;;;10.37;;
19905;SDS011;10115;50.906;4.438;2022-07-24T03:00:06;14.30;;;9.03;;
19905;SDS011;10115;50.906;4.438;2022-07-24T03:02:34;12.63;;;9.80;;
19905;SDS011;10115;50.906;4.438;2022-07-24T03:05:00;19.77;;;9.23;;
19905;SDS011;10115;50.906;4.438;2022-07-24T03:07:26;12.87;;;8.80;;
19905;SDS011;10115;50.906;4.438;2022-07-24T03:09:53;14.53;;;10.00;;
19905;SDS011;10115;50.906;4.438;2022-07-24T03:12:18;22.60;;;9.20;;
19905;SDS011;10115;50.906;4.438;2022-07-24T03:14:44;17.27;;;9.10;;
19905;SDS011;10115;50.906;4.438;2022-07-24T03:17:09;11.87;;;9.10;;
19905;SDS011;10115;50.906;4.438;2022-07-24T03:19:35;15.50;;;11.20;;
19905;SDS011;10115;50.906;4.438;2022-07-24T03:22:01;13.77;;;10.00;;
19905;SDS011;10115;50.906;4.438;2022-07-24T03:24:26;16.50;;;9.47;;
19905;SDS011;10115;50.906;4.438;2022-07-24T03:26:52;14.83;;;10.43;;
19905;SDS011;10115;50.906;4.438;2022-07-24T03:29:18;20.37;;;10.17;;
19905;SDS011;10115;50.906;4.438;2022-07-24T03:31:44;18.93;;;10.27;;
19905;SDS011;10115;50.906;4.438;2022-07-24T03:34:09;17.20;;;10.53;;
19905;SDS011;10115;50.906;4.438;2022-07-24T03:36:35;23.43;;;11.53;;
19905;SDS011;10115;50.906;4.438;2022-07-24T03:39:02;17.43;;;11.23;;
19905;SDS011;10115;50.906;4.438;2022-07-24T03:41:28;18.37;;;11.40;;
19905;SDS011;10115;50.906;4.438;2022-07-24T03:43:54;19.10;;;10.93;;
19905;SDS011;10115;50.906;4.438;2022-07-24T03:46:19;19.20;;;10.40;;
19905;SDS011;10115;50.906;4.438;2022-07-24T03:48:45;20.53;;;9.83;;
19905;SDS011;10115;50.906;4.438;2022-07-24T03:51:11;20.67;;;9.40;;
19905;SDS011;10115;50.906;4.438;2022-07-24T03:53:37;15.50;;;9.20;;
19905;SDS011;10115;50.906;4.438;2022-07-24T03:56:06;20.87;;;10.03;;
19905;SDS011;10115;50.906;4.438;2022-07-24T03:58:33;11.67;;;8.63;;
19905;SDS011;10115;50.906;4.438;2022-07-24T04:00:59;22.43;;;10.40;;
19905;SDS011;10115;50.906;4.438;2022-07-24T04:03:25;14.40;;;9.53;;
19905;SDS011;10115;50.906;4.438;2022-07-24T04:05:51;16.43;;;8.83;;
19905;SDS011;10115;50.906;4.438;2022-07-24T04:08:16;13.33;;;9.00;;
19905;SDS011;10115;50.906;4.438;2022-07-24T04:10:42;10.87;;;7.33;;
19905;SDS011;10115;50.906;4.438;2022-07-24T04:13:08;13.27;;;8.53;;
19905;SDS011;10115;50.906;4.438;2022-07-24T04:15:33;15.07;;;8.57;;
19905;SDS011;10115;50.906;4.438;2022-07-24T04:17:59;16.83;;;9.13;;
19905;SDS011;10115;50.906;4.438;2022-07-24T04:20:24;13.53;;;8.57;;
19905;SDS011;10115;50.906;4.438;2022-07-24T04:22:50;10.80;;;7.87;;
19905;SDS011;10115;50.906;4.438;2022-07-24T04:25:16;17.83;;;9.07;;
19905;SDS011;10115;50.906;4.438;2022-07-24T04:27:42;15.53;;;8.60;;
19905;SDS011;10115;50.906;4.438;2022-07-24T04:30:09;10.20;;;7.40;;
19905;SDS011;10115;50.906;4.438;2022-07-24T04:32:36;12.97;;;8.40;;
19905;SDS011;10115;50.906;4.438;2022-07-24T04:35:02;10.73;;;7.20;;
19905;SDS011;10115;50.906;4.438;2022-07-24T04:37:29;11.73;;;8.50;;
19905;SDS011;10115;50.906;4.438;2022-07-24T04:39:55;24.57;;;9.17;;
19905;SDS011;10115;50.906;4.438;2022-07-24T04:42:21;12.73;;;9.37;;
19905;SDS011;10115;50.906;4.438;2022-07-24T04:44:46;14.63;;;9.57;;
19905;SDS011;10115;50.906;4.438;2022-07-24T04:47:12;14.80;;;8.83;;
19905;SDS011;10115;50.906;4.438;2022-07-24T04:49:38;18.10;;;9.23;;
19905;SDS011;10115;50.906;4.438;2022-07-24T04:52:04;14.07;;;9.57;;
19905;SDS011;10115;50.906;4.438;2022-07-24T04:54:29;17.17;;;10.23;;
19905;SDS011;10115;50.906;4.438;2022-07-24T04:56:55;16.63;;;10.77;;
19905;SDS011;10115;50.906;4.438;2022-07-24T04:59:21;18.33;;;10.93;;
19905;SDS011;10115;50.906;4.438;2022-07-24T05:01:46;17.93;;;10.23;;
19905;SDS011;10115;50.906;4.438;2022-07-24T05:04:12;16.57;;;10.97;;
19905;SDS011;10115;50.906;4.438;2022-07-24T05:06:38;21.97;;;10.63;;
19905;SDS011;10115;50.906;4.438;2022-07-24T05:09:04;19.30;;;10.20;;
19905;SDS011;10115;50.906;4.438;2022-07-24T05:11:30;16.97;;;12.53;;
19905;SDS011;10115;50.906;4.438;2022-07-24T05:13:56;20.63;;;11.70;;
19905;SDS011;10115;50.906;4.438;2022-07-24T05:16:21;19.93;;;13.03;;
19905;SDS011;10115;50.906;4.438;2022-07-24T05:18:47;24.00;;;11.70;;
19905;SDS011;10115;50.906;4.438;2022-07-24T05:21:13;17.33;;;10.57;;
19905;SDS011;10115;50.906;4.438;2022-07-24T05:23:41;15.50;;;9.70;;
19905;SDS011;10115;50.906;4.438;2022-07-24T05:26:08;13.80;;;9.23;;
19905;SDS011;10115;50.906;4.438;2022-07-24T05:28:34;11.70;;;7.87;;
19905;SDS011;10115;50.906;4.438;2022-07-24T05:30:59;19.23;;;9.27;;
19905;SDS011;10115;50.906;4.438;2022-07-24T05:33:25;10.53;;;7.03;;
19905;SDS011;10115;50.906;4.438;2022-07-24T05:35:51;9.33;;;6.10;;
19905;SDS011;10115;50.906;4.438;2022-07-24T05:38:16;7.60;;;5.73;;
19905;SDS011;10115;50.906;4.438;2022-07-24T05:40:42;5.70;;;4.67;;
19905;SDS011;10115;50.906;4.438;2022-07-24T05:43:08;9.73;;;5.60;;
19905;SDS011;10115;50.906;4.438;2022-07-24T05:45:34;5.57;;;4.13;;
19905;SDS011;10115;50.906;4.438;2022-07-24T05:47:59;5.60;;;5.00;;
19905;SDS011;10115;50.906;4.438;2022-07-24T05:50:25;4.77;;;3.77;;
19905;SDS011;10115;50.906;4.438;2022-07-24T05:52:51;5.00;;;3.90;;
19905;SDS011;10115;50.906;4.438;2022-07-24T05:55:16;9.73;;;4.67;;
19905;SDS011;10115;50.906;4.438;2022-07-24T05:57:42;11.67;;;4.20;;
19905;SDS011;10115;50.906;4.438;2022-07-24T06:00:09;5.17;;;4.67;;
19905;SDS011;10115;50.906;4.438;2022-07-24T06:02:35;8.43;;;4.73;;
19905;SDS011;10115;50.906;4.438;2022-07-24T06:05:00;6.93;;;4.53;;
19905;SDS011;10115;50.906;4.438;2022-07-24T06:07:26;8.37;;;4.40;;
19905;SDS011;10115;50.906;4.438;2022-07-24T06:09:52;5.97;;;4.53;;
19905;SDS011;10115;50.906;4.438;2022-07-24T06:12:17;6.87;;;4.40;;
19905;SDS011;10115;50.906;4.438;2022-07-24T06:14:43;9.20;;;4.63;;
19905;SDS011;10115;50.906;4.438;2022-07-24T06:17:09;4.60;;;4.20;;
19905;SDS011;10115;50.906;4.438;2022-07-24T06:19:34;5.80;;;4.20;;
19905;SDS011;10115;50.906;4.438;2022-07-24T06:22:00;8.50;;;4.53;;
19905;SDS011;10115;50.906;4.438;2022-07-24T06:24:25;8.50;;;4.53;;
19905;SDS011;10115;50.906;4.438;2022-07-24T06:26:51;4.00;;;3.60;;
19905;SDS011;10115;50.906;4.438;2022-07-24T06:29:17;4.87;;;3.33;;
19905;SDS011;10115;50.906;4.438;2022-07-24T06:31:42;4.17;;;3.70;;
19905;SDS011;10115;50.906;4.438;2022-07-24T06:34:08;5.93;;;3.90;;
19905;SDS011;10115;50.906;4.438;2022-07-24T06:36:34;4.50;;;3.50;;
19905;SDS011;10115;50.906;4.438;2022-07-24T06:38:59;3.67;;;3.33;;
19905;SDS011;10115;50.906;4.438;2022-07-24T06:41:25;7.67;;;3.30;;
19905;SDS011;10115;50.906;4.438;2022-07-24T06:43:51;3.20;;;2.97;;
19905;SDS011;10115;50.906;4.438;2022-07-24T06:46:17;3.57;;;2.97;;
19905;SDS011;10115;50.906;4.438;2022-07-24T06:48:42;3.70;;;3.40;;
19905;SDS011;10115;50.906;4.438;2022-07-24T06:51:08;5.53;;;3.40;;
19905;SDS011;10115;50.906;4.438;2022-07-24T06:53:33;6.93;;;3.13;;
19905;SDS011;10115;50.906;4.438;2022-07-24T06:56:00;3.33;;;3.03;;
19905;SDS011;10115;50.906;4.438;2022-07-24T06:58:26;3.43;;;2.93;;
19905;SDS011;10115;50.906;4.438;2022-07-24T07:00:52;7.47;;;2.67;;
19905;SDS011;10115;50.906;4.438;2022-07-24T07:03:17;5.50;;;3.80;;
19905;SDS011;10115;50.906;4.438;2022-07-24T07:05:43;3.50;;;3.17;;
19905;SDS011;10115;50.906;4.438;2022-07-24T07:08:09;4.10;;;3.70;;
19905;SDS011;10115;50.906;4.438;2022-07-24T07:10:34;3.43;;;2.90;;
19905;SDS011;10115;50.906;4.438;2022-07-24T07:13:00;6.97;;;3.27;;
19905;SDS011;10115;50.906;4.438;2022-07-24T07:15:26;4.40;;;3.17;;
19905;SDS011;10115;50.906;4.438;2022-07-24T07:17:51;5.93;;;3.53;;
19905;SDS011;10115;50.906;4.438;2022-07-24T07:20:17;5.57;;;3.87;;
19905;SDS011;10115;50.906;4.438;2022-07-24T07:22:43;3.97;;;3.13;;
19905;SDS011;10115;50.906;4.438;2022-07-24T07:25:09;4.63;;;3.40;;
19905;SDS011;10115;50.906;4.438;2022-07-24T07:27:36;4.67;;;2.70;;
19905;SDS011;10115;50.906;4.438;2022-07-24T07:30:03;3.73;;;2.80;;
19905;SDS011;10115;50.906;4.438;2022-07-24T07:32:29;4.40;;;2.90;;
19905;SDS011;10115;50.906;4.438;2022-07-24T07:34:55;3.43;;;2.90;;
19905;SDS011;10115;50.906;4.438;2022-07-24T07:37:21;4.53;;;2.80;;
19905;SDS011;10115;50.906;4.438;2022-07-24T07:39:46;4.37;;;2.40;;
19905;SDS011;10115;50.906;4.438;2022-07-24T07:42:12;2.60;;;2.40;;
19905;SDS011;10115;50.906;4.438;2022-07-24T07:44:38;2.50;;;2.30;;
19905;SDS011;10115;50.906;4.438;2022-07-24T07:47:04;1.97;;;1.87;;
19905;SDS011;10115;50.906;4.438;2022-07-24T07:49:30;2.97;;;2.03;;
19905;SDS011;10115;50.906;4.438;2022-07-24T07:51:56;2.30;;;2.20;;
19905;SDS011;10115;50.906;4.438;2022-07-24T07:54:21;6.77;;;2.23;;
19905;SDS011;10115;50.906;4.438;2022-07-24T07:56:47;2.37;;;2.17;;
19905;SDS011;10115;50.906;4.438;2022-07-24T07:59:12;3.07;;;2.77;;
19905;SDS011;10115;50.906;4.438;2022-07-24T08:01:38;2.93;;;2.37;;
19905;SDS011;10115;50.906;4.438;2022-07-24T08:04:04;3.17;;;2.60;;
19905;SDS011;10115;50.906;4.438;2022-07-24T08:06:30;4.67;;;2.53;;
19905;SDS011;10115;50.906;4.438;2022-07-24T08:08:56;4.23;;;3.17;;
19905;SDS011;10115;50.906;4.438;2022-07-24T08:11:21;3.87;;;2.50;;
19905;SDS011;10115;50.906;4.438;2022-07-24T08:13:47;3.37;;;2.80;;
19905;SDS011;10115;50.906;4.438;2022-07-24T08:16:13;2.72;;;2.53;;
19905;SDS011;10115;50.906;4.438;2022-07-24T08:18:38;4.57;;;2.97;;
19905;SDS011;10115;50.906;4.438;2022-07-24T08:21:04;4.13;;;3.03;;
19905;SDS011;10115;50.906;4.438;2022-07-24T08:23:30;3.57;;;3.13;;
19905;SDS011;10115;50.906;4.438;2022-07-24T08:25:56;3.07;;;2.77;;
19905;SDS011;10115;50.906;4.438;2022-07-24T08:28:21;2.73;;;2.37;;
19905;SDS011;10115;50.906;4.438;2022-07-24T08:30:49;2.50;;;2.20;;
19905;SDS011;10115;50.906;4.438;2022-07-24T08:33:15;4.37;;;3.33;;
19905;SDS011;10115;50.906;4.438;2022-07-24T08:35:41;3.30;;;2.97;;
19905;SDS011;10115;50.906;4.438;2022-07-24T08:38:06;3.30;;;2.70;;
19905;SDS011;10115;50.906;4.438;2022-07-24T08:40:33;4.50;;;2.73;;
19905;SDS011;10115;50.906;4.438;2022-07-24T08:43:02;3.55;;;2.72;;
19905;SDS011;10115;50.906;4.438;2022-07-24T08:45:29;5.60;;;2.50;;
19905;SDS011;10115;50.906;4.438;2022-07-24T08:47:58;3.67;;;2.73;;
19905;SDS011;10115;50.906;4.438;2022-07-24T08:50:27;2.78;;;2.53;;
19905;SDS011;10115;50.906;4.438;2022-07-24T08:52:53;2.85;;;2.63;;
19905;SDS011;10115;50.906;4.438;2022-07-24T08:55:19;3.75;;;2.70;;
19905;SDS011;10115;50.906;4.438;2022-07-24T08:57:45;3.10;;;2.60;;
19905;SDS011;10115;50.906;4.438;2022-07-24T09:00:11;3.58;;;2.88;;
19905;SDS011;10115;50.906;4.438;2022-07-24T09:02:37;3.03;;;2.65;;
19905;SDS011;10115;50.906;4.438;2022-07-24T09:05:03;2.17;;;2.03;;
19905;SDS011;10115;50.906;4.438;2022-07-24T09:07:29;4.33;;;2.33;;
19905;SDS011;10115;50.906;4.438;2022-07-24T09:10:03;1.33;;;1.33;;
19905;SDS011;10115;50.906;4.438;2022-07-24T09:12:41;2.20;;;2.10;;
19905;SDS011;10115;50.906;4.438;2022-07-24T09:15:11;2.85;;;2.28;;
19905;SDS011;10115;50.906;4.438;2022-07-24T09:17:43;2.28;;;1.95;;
19905;SDS011;10115;50.906;4.438;2022-07-24T09:20:12;2.90;;;2.55;;
19905;SDS011;10115;50.906;4.438;2022-07-24T09:22:38;2.40;;;2.20;;
19905;SDS011;10115;50.906;4.438;2022-07-24T09:27:32;3.58;;;2.10;;
19905;SDS011;10115;50.906;4.438;2022-07-24T09:29:58;2.20;;;2.05;;
19905;SDS011;10115;50.906;4.438;2022-07-24T09:32:24;2.00;;;1.90;;
19905;SDS011;10115;50.906;4.438;2022-07-24T09:34:53;2.45;;;2.00;;
19905;SDS011;10115;50.906;4.438;2022-07-24T09:37:19;3.50;;;1.85;;
19905;SDS011;10115;50.906;4.438;2022-07-24T09:39:45;2.63;;;2.42;;
19905;SDS011;10115;50.906;4.438;2022-07-24T09:42:12;2.03;;;1.92;;
19905;SDS011;10115;50.906;4.438;2022-07-24T09:44:38;2.03;;;1.92;;
19905;SDS011;10115;50.906;4.438;2022-07-24T09:47:05;1.55;;;1.40;;
19905;SDS011;10115;50.906;4.438;2022-07-24T09:49:34;3.22;;;1.98;;
19905;SDS011;10115;50.906;4.438;2022-07-24T09:54:30;1.67;;;1.58;;
19905;SDS011;10115;50.906;4.438;2022-07-24T09:59:49;1.45;;;1.45;;
19905;SDS011;10115;50.906;4.438;2022-07-24T10:02:21;1.65;;;1.55;;
19905;SDS011;10115;50.906;4.438;2022-07-24T10:04:49;1.60;;;1.50;;
19905;SDS011;10115;50.906;4.438;2022-07-24T10:07:17;2.40;;;2.00;;
19905;SDS011;10115;50.906;4.438;2022-07-24T10:09:45;1.58;;;1.50;;
19905;SDS011;10115;50.906;4.438;2022-07-24T10:12:17;2.00;;;1.88;;
19905;SDS011;10115;50.906;4.438;2022-07-24T10:14:48;1.80;;;1.70;;
19905;SDS011;10115;50.906;4.438;2022-07-24T10:17:15;2.13;;;2.03;;
19905;SDS011;10115;50.906;4.438;2022-07-24T10:19:46;1.70;;;1.60;;
19905;SDS011;10115;50.906;4.438;2022-07-24T10:22:17;1.60;;;1.50;;
19905;SDS011;10115;50.906;4.438;2022-07-24T10:27:32;3.40;;;2.22;;
19905;SDS011;10115;50.906;4.438;2022-07-24T10:30:06;2.28;;;2.08;;
19905;SDS011;10115;50.906;4.438;2022-07-24T10:32:34;2.10;;;1.90;;
19905;SDS011;10115;50.906;4.438;2022-07-24T10:35:18;1.80;;;1.70;;
19905;SDS011;10115;50.906;4.438;2022-07-24T10:40:51;2.25;;;2.03;;
19905;SDS011;10115;50.906;4.438;2022-07-24T10:43:20;2.20;;;1.83;;
19905;SDS011;10115;50.906;4.438;2022-07-24T10:59:31;2.00;;;1.80;;
19905;SDS011;10115;50.906;4.438;2022-07-24T11:01:41;1.77;;;1.67;;
19905;SDS011;10115;50.906;4.438;2022-07-24T11:06:45;1.90;;;1.80;;
19905;SDS011;10115;50.906;4.438;2022-07-24T11:09:12;9.15;;;2.60;;
19905;SDS011;10115;50.906;4.438;2022-07-24T11:11:42;2.00;;;1.90;;
19905;SDS011;10115;50.906;4.438;2022-07-24T11:17:37;2.25;;;2.15;;
19905;SDS011;10115;50.906;4.438;2022-07-24T11:20:06;1.83;;;1.73;;
19905;SDS011;10115;50.906;4.438;2022-07-24T11:22:41;3.08;;;1.90;;
19905;SDS011;10115;50.906;4.438;2022-07-24T11:25:14;2.53;;;2.13;;
19905;SDS011;10115;50.906;4.438;2022-07-24T11:27:48;1.88;;;1.77;;
19905;SDS011;10115;50.906;4.438;2022-07-24T11:30:27;2.78;;;2.03;;
19905;SDS011;10115;50.906;4.438;2022-07-24T11:32:54;1.75;;;1.65;;
19905;SDS011;10115;50.906;4.438;2022-07-24T11:35:34;1.98;;;1.83;;
19905;SDS011;10115;50.906;4.438;2022-07-24T11:38:02;1.85;;;1.60;;
19905;SDS011;10115;50.906;4.438;2022-07-24T11:40:30;1.95;;;1.85;;
19905;SDS011;10115;50.906;4.438;2022-07-24T11:42:57;2.10;;;2.00;;
19905;SDS011;10115;50.906;4.438;2022-07-24T11:45:24;2.08;;;1.92;;
19905;SDS011;10115;50.906;4.438;2022-07-24T11:47:50;1.75;;;1.65;;
19905;SDS011;10115;50.906;4.438;2022-07-24T11:50:19;1.80;;;1.70;;
19905;SDS011;10115;50.906;4.438;2022-07-24T11:52:49;2.47;;;2.28;;
19905;SDS011;10115;50.906;4.438;2022-07-24T11:55:17;2.78;;;1.90;;
19905;SDS011;10115;50.906;4.438;2022-07-24T11:57:48;2.30;;;2.10;;
19905;SDS011;10115;50.906;4.438;2022-07-24T12:00:17;1.55;;;1.45;;
19905;SDS011;10115;50.906;4.438;2022-07-24T12:05:11;2.10;;;1.90;;
19905;SDS011;10115;50.906;4.438;2022-07-24T12:07:37;2.10;;;1.90;;
19905;SDS011;10115;50.906;4.438;2022-07-24T12:10:03;1.60;;;1.50;;
19905;SDS011;10115;50.906;4.438;2022-07-24T12:12:30;1.95;;;1.85;;
19905;SDS011;10115;50.906;4.438;2022-07-24T12:17:34;2.60;;;1.63;;
19905;SDS011;10115;50.906;4.438;2022-07-24T12:20:16;1.77;;;1.67;;
19905;SDS011;10115;50.906;4.438;2022-07-24T12:22:45;2.17;;;1.67;;
19905;SDS011;10115;50.906;4.438;2022-07-24T12:25:12;6.80;;;2.20;;
19905;SDS011;10115;50.906;4.438;2022-07-24T12:27:40;4.80;;;2.47;;
19905;SDS011;10115;50.906;4.438;2022-07-24T12:30:17;3.10;;;1.95;;
19905;SDS011;10115;50.906;4.438;2022-07-24T12:35:31;4.55;;;2.15;;
19905;SDS011;10115;50.906;4.438;2022-07-24T12:37:59;2.50;;;2.00;;
19905;SDS011;10115;50.906;4.438;2022-07-24T12:40:36;5.47;;;2.25;;
19905;SDS011;10115;50.906;4.438;2022-07-24T12:45:31;2.72;;;1.85;;
19905;SDS011;10115;50.906;4.438;2022-07-24T12:48:07;3.83;;;2.55;;
19905;SDS011;10115;50.906;4.438;2022-07-24T12:50:50;2.03;;;1.83;;
19905;SDS011;10115;50.906;4.438;2022-07-24T12:53:28;3.70;;;2.42;;
19905;SDS011;10115;50.906;4.438;2022-07-24T13:01:20;2.65;;;1.95;;
19905;SDS011;10115;50.906;4.438;2022-07-24T13:03:53;3.38;;;2.03;;
19905;SDS011;10115;50.906;4.438;2022-07-24T13:06:33;2.03;;;1.83;;
19905;SDS011;10115;50.906;4.438;2022-07-24T13:09:07;1.75;;;1.65;;
19905;SDS011;10115;50.906;4.438;2022-07-24T13:11:38;3.55;;;1.65;;
19905;SDS011;10115;50.906;4.438;2022-07-24T13:14:05;1.83;;;1.70;;
19905;SDS011;10115;50.906;4.438;2022-07-24T13:16:32;4.47;;;1.63;;
19905;SDS011;10115;50.906;4.438;2022-07-24T13:18:59;3.35;;;2.03;;
19905;SDS011;10115;50.906;4.438;2022-07-24T13:21:26;1.83;;;1.58;;
19905;SDS011;10115;50.906;4.438;2022-07-24T13:23:52;2.15;;;1.95;;
19905;SDS011;10115;50.906;4.438;2022-07-24T13:26:19;2.70;;;1.90;;
19905;SDS011;10115;50.906;4.438;2022-07-24T13:28:44;3.53;;;1.88;;
19905;SDS011;10115;50.906;4.438;2022-07-24T13:31:11;2.20;;;2.00;;
19905;SDS011;10115;50.906;4.438;2022-07-24T13:33:37;3.47;;;1.88;;
19905;SDS011;10115;50.906;4.438;2022-07-24T13:36:03;1.83;;;1.70;;
19905;SDS011;10115;50.906;4.438;2022-07-24T13:38:29;1.23;;;1.00;;
19905;SDS011;10115;50.906;4.438;2022-07-24T13:40:55;1.45;;;1.23;;
19905;SDS011;10115;50.906;4.438;2022-07-24T13:43:20;0.63;;;0.63;;
19905;SDS011;10115;50.906;4.438;2022-07-24T13:45:46;1.88;;;1.77;;
19905;SDS011;10115;50.906;4.438;2022-07-24T13:48:12;1.73;;;1.63;;
19905;SDS011;10115;50.906;4.438;2022-07-24T13:50:37;1.83;;;1.73;;
19905;SDS011;10115;50.906;4.438;2022-07-24T13:53:03;1.65;;;1.48;;
19905;SDS011;10115;50.906;4.438;2022-07-24T13:55:30;1.80;;;1.60;;
19905;SDS011;10115;50.906;4.438;2022-07-24T13:57:56;2.17;;;1.98;;
19905;SDS011;10115;50.906;4.438;2022-07-24T14:00:22;3.13;;;1.85;;
19905;SDS011;10115;50.906;4.438;2022-07-24T14:02:49;2.40;;;2.00;;
19905;SDS011;10115;50.906;4.438;2022-07-24T14:05:20;2.38;;;1.67;;
19905;SDS011;10115;50.906;4.438;2022-07-24T14:07:48;4.25;;;2.22;;
19905;SDS011;10115;50.906;4.438;2022-07-24T14:10:15;2.38;;;1.55;;
19905;SDS011;10115;50.906;4.438;2022-07-24T14:12:40;5.05;;;1.80;;
19905;SDS011;10115;50.906;4.438;2022-07-24T14:15:06;3.28;;;1.95;;
19905;SDS011;10115;50.906;4.438;2022-07-24T14:17:34;2.53;;;1.83;;
19905;SDS011;10115;50.906;4.438;2022-07-24T14:20:00;1.75;;;1.65;;
19905;SDS011;10115;50.906;4.438;2022-07-24T14:22:26;3.88;;;2.08;;
19905;SDS011;10115;50.906;4.438;2022-07-24T14:24:52;2.67;;;2.15;;
19905;SDS011;10115;50.906;4.438;2022-07-24T14:27:18;1.40;;;1.27;;
19905;SDS011;10115;50.906;4.438;2022-07-24T14:29:43;2.72;;;2.28;;
19905;SDS011;10115;50.906;4.438;2022-07-24T14:32:09;3.53;;;2.20;;
19905;SDS011;10115;50.906;4.438;2022-07-24T14:34:35;2.08;;;1.88;;
19905;SDS011;10115;50.906;4.438;2022-07-24T14:37:00;2.00;;;1.80;;
19905;SDS011;10115;50.906;4.438;2022-07-24T14:39:26;1.92;;;1.73;;
19905;SDS011;10115;50.906;4.438;2022-07-24T14:41:56;2.13;;;2.03;;
19905;SDS011;10115;50.906;4.438;2022-07-24T14:44:22;1.60;;;1.48;;
19905;SDS011;10115;50.906;4.438;2022-07-24T14:46:48;2.55;;;1.70;;
19905;SDS011;10115;50.906;4.438;2022-07-24T14:49:14;3.45;;;1.80;;
19905;SDS011;10115;50.906;4.438;2022-07-24T14:51:39;3.22;;;2.58;;
19905;SDS011;10115;50.906;4.438;2022-07-24T14:54:05;2.20;;;1.90;;
19905;SDS011;10115;50.906;4.438;2022-07-24T14:56:31;2.22;;;1.55;;
19905;SDS011;10115;50.906;4.438;2022-07-24T14:58:57;2.95;;;2.22;;
19905;SDS011;10115;50.906;4.438;2022-07-24T15:01:23;2.58;;;1.90;;
19905;SDS011;10115;50.906;4.438;2022-07-24T15:03:49;1.95;;;1.65;;
19905;SDS011;10115;50.906;4.438;2022-07-24T15:06:14;3.97;;;2.10;;
19905;SDS011;10115;50.906;4.438;2022-07-24T15:08:40;1.95;;;1.85;;
19905;SDS011;10115;50.906;4.438;2022-07-24T15:11:06;2.20;;;2.00;;
19905;SDS011;10115;50.906;4.438;2022-07-24T15:13:31;2.10;;;1.60;;
19905;SDS011;10115;50.906;4.438;2022-07-24T15:15:57;2.20;;;2.03;;
19905;SDS011;10115;50.906;4.438;2022-07-24T15:18:23;3.25;;;2.30;;
19905;SDS011;10115;50.906;4.438;2022-07-24T15:20:48;3.35;;;2.38;;
19905;SDS011;10115;50.906;4.438;2022-07-24T15:23:14;2.50;;;2.17;;
19905;SDS011;10115;50.906;4.438;2022-07-24T15:25:40;3.30;;;2.20;;